createdAt,value
2022-09-06T04:01:48.341Z,15.50
2022-09-06T04:04:16.360Z,15.40
2022-09-06T04:06:44.371Z,15.40
2022-09-06T04:09:13.440Z,15.30
2022-09-06T04:11:43.877Z,15.30
2022-09-06T04:14:25.083Z,15.30
2022-09-06T04:16:54.439Z,15.20
2022-09-06T04:19:23.883Z,15.20
2022-09-06T04:21:51.919Z,15.20
2022-09-06T04:24:19.918Z,15.20
2022-09-06T04:26:48.126Z,15.10
2022-09-06T04:29:16.108Z,15.10
2022-09-06T04:31:44.199Z,15.10
2022-09-06T04:34:13.608Z,15.10
2022-09-06T04:36:43.647Z,15.00
2022-09-06T04:39:15.820Z,15.00
2022-09-06T04:41:44.044Z,15.00
2022-09-06T04:44:12.076Z,15.00
2022-09-06T04:46:43.456Z,15.00
2022-09-06T04:49:13.113Z,15.00
2022-09-06T04:51:41.249Z,15.00
2022-09-06T04:54:09.207Z,15.00
2022-09-06T04:56:37.281Z,15.10
2022-09-06T04:59:05.235Z,15.10
2022-09-06T05:01:33.526Z,15.10
2022-09-06T05:04:01.549Z,15.20
2022-09-06T05:06:30.880Z,15.30
2022-09-06T05:08:58.924Z,15.30
2022-09-06T05:11:27.317Z,15.40
2022-09-06T05:13:55.325Z,15.50
2022-09-06T05:16:23.338Z,15.50
2022-09-06T05:18:51.397Z,15.60
2022-09-06T05:21:20.202Z,15.70
2022-09-06T05:23:49.575Z,15.70
2022-09-06T05:26:17.541Z,15.80
2022-09-06T05:28:45.557Z,15.90
2022-09-06T05:31:26.472Z,16.00
2022-09-06T05:33:56.000Z,16.10
2022-09-06T05:36:24.259Z,16.20
2022-09-06T05:38:55.572Z,16.20
2022-09-06T05:41:25.096Z,16.30
2022-09-06T05:43:53.093Z,16.40
2022-09-06T05:46:21.231Z,16.60
2022-09-06T05:48:54.366Z,16.70
2022-09-06T05:51:22.429Z,16.80
2022-09-06T05:53:50.528Z,16.90
2022-09-06T05:56:19.935Z,17.00
2022-09-06T05:58:47.939Z,17.10
2022-09-06T06:01:19.755Z,17.10
2022-09-06T06:03:54.041Z,17.20
2022-09-06T06:06:23.491Z,17.20
2022-09-06T06:08:52.039Z,17.30
2022-09-06T06:11:21.771Z,17.40
2022-09-06T06:13:50.663Z,17.40
2022-09-06T06:16:22.047Z,17.50
2022-09-06T06:18:52.468Z,17.60
2022-09-06T06:21:23.026Z,17.60
2022-09-06T06:23:54.288Z,17.70
2022-09-06T06:26:24.730Z,17.80
2022-09-06T06:28:53.329Z,18.00
2022-09-06T06:31:22.894Z,18.10
2022-09-06T06:33:51.463Z,18.20
2022-09-06T06:36:25.285Z,18.30
2022-09-06T06:38:56.453Z,18.40
2022-09-06T06:41:28.747Z,18.50
2022-09-06T06:43:59.489Z,18.60
2022-09-06T06:46:30.294Z,18.80
2022-09-06T06:48:59.203Z,19.00
2022-09-06T06:51:29.912Z,19.20
2022-09-06T06:53:58.613Z,19.40
2022-09-06T06:56:30.544Z,19.50
2022-09-06T06:59:01.520Z,19.70
2022-09-06T07:01:32.590Z,19.70
2022-09-06T07:04:01.035Z,19.80
2022-09-06T07:09:19.244Z,19.90
2022-09-06T07:11:49.813Z,19.90
2022-09-06T07:14:18.358Z,20.00
2022-09-06T07:16:46.914Z,20.00
2022-09-06T07:22:05.332Z,20.10
2022-09-06T07:24:33.998Z,20.20
2022-09-06T07:29:51.253Z,20.30
2022-09-06T07:32:19.317Z,20.50
2022-09-06T07:34:47.304Z,20.50
2022-09-06T07:37:15.385Z,20.60
2022-09-06T07:39:43.459Z,20.70
2022-09-06T07:42:12.802Z,20.80
2022-09-06T07:44:40.865Z,20.80
2022-09-06T07:55:34.145Z,21.30
2022-09-06T07:58:03.526Z,21.50
2022-09-06T08:00:31.652Z,21.60
2022-09-06T08:03:00.331Z,21.80
2022-09-06T08:11:06.403Z,22.10
2022-09-06T08:13:36.090Z,22.20
2022-09-06T08:16:07.059Z,22.40
2022-09-06T08:18:35.961Z,22.40
2022-09-06T08:21:12.415Z,22.60
2022-09-06T08:23:45.451Z,22.70
2022-09-06T08:26:13.525Z,22.80
2022-09-06T08:28:43.101Z,22.80
2022-09-06T08:31:13.722Z,22.90
2022-09-06T08:33:43.433Z,22.90
2022-09-06T08:36:12.690Z,23.00
2022-09-06T08:38:40.763Z,23.00
2022-09-06T08:41:18.532Z,22.90
2022-09-06T08:46:56.330Z,23.00
2022-09-06T08:49:27.975Z,23.10
2022-09-06T08:52:26.595Z,23.20
2022-09-06T08:55:03.805Z,23.30
2022-09-06T08:57:55.291Z,23.40
2022-09-06T09:00:25.024Z,23.50
2022-09-06T09:03:05.658Z,23.60
2022-09-06T09:05:37.412Z,23.80
2022-09-06T09:08:17.148Z,24.00
2022-09-06T09:10:50.164Z,24.20
2022-09-06T09:13:27.141Z,24.40
2022-09-06T09:15:56.526Z,24.60
2022-09-06T09:18:29.984Z,24.70
2022-09-06T09:20:59.787Z,24.80
2022-09-06T09:23:30.873Z,24.90
2022-09-06T09:26:07.382Z,25.00
2022-09-06T09:28:36.123Z,25.10
2022-09-06T09:31:07.320Z,25.20
2022-09-06T09:33:38.830Z,25.30
2022-09-06T09:36:12.025Z,25.50
2022-09-06T09:38:45.109Z,25.70
2022-09-06T09:41:30.327Z,25.90
2022-09-06T09:44:04.884Z,26.10
2022-09-06T09:46:36.292Z,26.30
2022-09-06T09:49:10.145Z,26.40
2022-09-06T09:51:40.646Z,26.50
2022-09-06T09:54:12.623Z,26.50
2022-09-06T09:56:51.586Z,26.60
2022-09-06T09:59:24.997Z,26.80
2022-09-06T10:01:59.939Z,26.90
2022-09-06T10:04:49.257Z,26.90
2022-09-06T10:07:21.279Z,26.90
2022-09-06T10:09:51.400Z,26.80
2022-09-06T10:12:30.060Z,26.90
2022-09-06T10:15:01.022Z,26.90
2022-09-06T10:17:37.068Z,27.00
2022-09-06T10:20:09.178Z,27.10
2022-09-06T10:22:51.681Z,27.10
2022-09-06T10:25:42.108Z,27.00
2022-09-06T10:28:34.489Z,26.90
2022-09-06T10:31:53.148Z,26.90
2022-09-06T10:35:04.748Z,26.70
2022-09-06T10:37:50.742Z,26.50
2022-09-06T10:40:33.134Z,26.40
2022-09-06T10:43:04.199Z,26.30
2022-09-06T10:45:47.645Z,26.40
2022-09-06T10:48:25.359Z,26.40
2022-09-06T10:50:59.721Z,26.50
2022-09-06T10:53:44.488Z,26.50
2022-09-06T10:56:18.894Z,26.70
2022-09-06T11:01:58.888Z,27.00
2022-09-06T11:07:31.187Z,27.60
2022-09-06T11:10:05.972Z,27.80
2022-09-06T11:12:42.888Z,28.10
2022-09-06T11:15:16.061Z,28.40
2022-09-06T11:17:53.352Z,28.70
2022-09-06T11:20:32.273Z,29.10
2022-09-06T11:23:39.649Z,29.30
2022-09-06T11:26:32.471Z,29.70
2022-09-06T11:29:04.163Z,30.10
2022-09-06T11:34:27.586Z,30.20
2022-09-06T11:36:58.814Z,29.80
2022-09-06T11:42:43.065Z,29.40
2022-09-06T11:45:21.618Z,29.00
2022-09-06T11:47:52.388Z,28.80
2022-09-06T11:51:01.040Z,28.50
2022-09-06T11:53:32.248Z,28.20
2022-09-06T11:56:30.467Z,27.90
2022-09-06T11:59:05.259Z,27.70
2022-09-06T12:01:40.939Z,27.60
2022-09-06T12:04:11.102Z,27.50
2022-09-06T12:06:43.998Z,27.30
2022-09-06T12:09:31.061Z,27.20
2022-09-06T12:12:02.343Z,27.20
2022-09-06T12:14:35.816Z,27.20
2022-09-06T12:17:28.453Z,27.00
2022-09-06T12:20:06.331Z,27.00
2022-09-06T12:22:55.661Z,27.00
2022-09-06T12:25:59.203Z,27.00
2022-09-06T12:28:38.818Z,27.10
2022-09-06T12:31:37.965Z,27.30
2022-09-06T12:34:15.895Z,27.40
2022-09-06T12:37:16.743Z,27.30
2022-09-06T12:39:59.104Z,27.40
2022-09-06T12:42:27.997Z,27.50
2022-09-06T12:44:57.874Z,27.70
2022-09-06T12:47:31.922Z,27.90
2022-09-06T12:50:14.837Z,28.20
2022-09-06T12:52:52.505Z,28.80
2022-09-06T12:55:26.217Z,29.40
2022-09-06T12:57:58.044Z,30.30
2022-09-06T13:00:35.363Z,31.10
2022-09-06T13:03:21.084Z,32.10
2022-09-06T13:05:49.622Z,33.30
2022-09-06T13:08:25.187Z,34.50
2022-09-06T13:10:54.169Z,35.60
2022-09-06T13:13:27.143Z,36.60
2022-09-06T13:15:57.609Z,37.40
2022-09-06T13:18:35.436Z,37.80
2022-09-06T13:21:07.361Z,37.70
2022-09-06T13:23:44.026Z,36.80
2022-09-06T13:26:12.663Z,35.70
2022-09-06T13:28:41.619Z,34.80
2022-09-06T13:31:20.024Z,33.90
2022-09-06T14:13:49.578Z,34.00
2022-09-06T14:16:18.771Z,33.60
2022-09-06T14:18:48.048Z,33.30
2022-09-06T14:21:18.595Z,32.80
2022-09-06T14:23:52.866Z,32.10
2022-09-06T14:26:25.100Z,31.70
2022-09-06T14:28:53.268Z,30.90
2022-09-06T14:31:25.844Z,30.80
2022-09-06T14:33:54.820Z,31.00
2022-09-06T14:36:29.297Z,31.50
2022-09-06T14:38:59.168Z,31.70
2022-09-06T14:41:28.197Z,31.90
2022-09-06T14:43:58.692Z,32.00
2022-09-06T14:46:29.771Z,32.10
2022-09-06T14:49:00.086Z,33.20
2022-09-06T14:51:31.581Z,35.00
2022-09-06T14:54:03.324Z,35.60
2022-09-06T14:56:31.513Z,35.30
2022-09-06T14:59:00.396Z,34.60
2022-09-06T15:01:35.712Z,33.80
2022-09-06T15:04:09.522Z,33.30
2022-09-06T15:06:44.143Z,33.20
2022-09-06T15:09:12.399Z,34.30
2022-09-06T15:11:43.696Z,35.80
2022-09-06T15:14:17.071Z,36.90
2022-09-06T15:16:45.708Z,38.30
2022-09-06T15:19:14.530Z,39.50
2022-09-06T15:21:44.130Z,39.50
2022-09-06T15:24:12.527Z,38.60
2022-09-06T15:26:42.117Z,37.50
2022-09-06T15:29:11.631Z,36.90
2022-09-06T15:31:40.814Z,36.20
2022-09-06T15:34:09.865Z,36.10
2022-09-06T15:36:38.635Z,35.20
2022-09-06T15:39:08.263Z,35.40
2022-09-06T15:41:40.375Z,35.50
2022-09-06T15:44:12.155Z,35.40
2022-09-06T15:46:47.983Z,34.80
2022-09-06T15:49:19.040Z,33.70
2022-09-06T15:51:47.602Z,32.90
2022-09-06T15:54:40.181Z,32.80
2022-09-06T15:57:08.352Z,33.00
2022-09-06T15:59:36.536Z,33.50
2022-09-06T16:02:04.911Z,33.50
2022-09-06T16:04:33.205Z,32.80
2022-09-06T16:07:01.253Z,32.00
2022-09-06T16:09:31.762Z,31.30
2022-09-06T16:12:00.192Z,30.50
2022-09-06T16:14:28.983Z,30.10
2022-09-06T16:16:57.411Z,29.50
2022-09-06T16:19:27.409Z,29.00
2022-09-06T16:21:55.510Z,28.50
2022-09-06T16:24:23.780Z,28.10
2022-09-06T16:26:53.195Z,27.70
2022-09-06T16:29:21.315Z,27.40
2022-09-06T16:31:49.804Z,26.90
2022-09-06T16:34:18.180Z,26.60
2022-09-06T16:36:46.275Z,26.20
2022-09-06T16:39:14.466Z,26.00
2022-09-06T16:41:46.565Z,25.70
2022-09-06T16:44:19.100Z,25.40
2022-09-06T16:46:50.257Z,25.20
2022-09-06T16:49:20.061Z,25.00
2022-09-06T16:51:50.405Z,24.80
2022-09-06T16:54:20.095Z,24.70
2022-09-06T16:56:48.828Z,24.60
2022-09-06T16:59:21.619Z,24.50
2022-09-06T17:01:51.352Z,24.30
2022-09-06T17:04:19.717Z,24.20
2022-09-06T17:06:47.836Z,24.10
2022-09-06T17:09:19.619Z,23.90
2022-09-06T17:11:49.763Z,23.80
2022-09-06T17:14:20.088Z,23.70
2022-09-06T17:17:05.864Z,23.50
2022-09-06T17:19:37.527Z,23.30
2022-09-06T17:22:06.145Z,23.20
2022-09-06T17:24:34.270Z,23.10
2022-09-06T17:27:02.346Z,23.00
2022-09-06T17:29:33.023Z,22.80
2022-09-06T17:32:03.832Z,22.70
2022-09-06T17:34:31.856Z,22.60
2022-09-06T17:36:59.909Z,22.60
2022-09-06T17:39:28.016Z,22.50
2022-09-06T17:41:56.138Z,22.40
2022-09-06T17:44:26.621Z,22.30
2022-09-06T17:47:12.029Z,22.20
2022-09-06T17:49:41.372Z,22.20
2022-09-06T17:52:09.713Z,22.10
2022-09-06T17:54:37.976Z,22.00
2022-09-06T17:57:06.018Z,22.00
2022-09-06T17:59:35.730Z,21.90
2022-09-06T18:02:06.450Z,21.80
2022-09-06T18:04:35.165Z,21.80
2022-09-06T18:07:03.531Z,21.70
2022-09-06T18:09:31.702Z,21.60
2022-09-06T18:12:00.019Z,21.60
2022-09-06T18:14:29.014Z,21.60
2022-09-06T18:16:57.408Z,21.50
2022-09-06T18:19:27.526Z,21.50
2022-09-06T18:21:57.068Z,21.40
2022-09-06T18:24:25.257Z,21.40
2022-09-06T18:26:53.315Z,21.40
2022-09-06T18:29:21.644Z,21.40
2022-09-06T18:31:53.398Z,21.30
2022-09-06T18:34:21.886Z,21.30
2022-09-06T18:36:51.333Z,21.30
2022-09-06T18:39:20.492Z,21.20
2022-09-06T18:42:00.772Z,21.20
2022-09-06T18:44:32.354Z,21.10
2022-09-06T18:47:02.186Z,21.10
2022-09-06T18:49:31.073Z,21.10
2022-09-06T18:52:01.235Z,21.00
2022-09-06T18:54:29.847Z,21.00
2022-09-06T18:56:58.654Z,21.00
2022-09-06T18:59:26.882Z,20.90
2022-09-06T19:01:55.326Z,20.90
2022-09-06T19:04:23.656Z,20.80
2022-09-06T19:06:51.722Z,20.80
2022-09-06T19:09:21.267Z,20.80
2022-09-06T19:11:51.619Z,20.80
2022-09-06T19:14:20.273Z,20.80
2022-09-06T19:16:50.065Z,20.70
2022-09-06T19:19:18.357Z,20.70
2022-09-06T19:21:46.483Z,20.60
2022-09-06T19:24:15.922Z,20.60
2022-09-06T19:26:46.902Z,20.60
2022-09-06T19:29:17.545Z,20.60
2022-09-06T19:31:47.514Z,20.50
2022-09-06T19:34:16.134Z,20.50
2022-09-06T19:36:45.535Z,20.40
2022-09-06T19:39:16.976Z,20.40
2022-09-06T19:41:47.534Z,20.40
2022-09-06T19:44:16.932Z,20.40
2022-09-06T19:46:47.673Z,20.40
2022-09-06T19:49:19.128Z,20.30
2022-09-06T19:51:51.226Z,20.30
2022-09-06T19:54:20.298Z,20.30
2022-09-06T19:56:49.689Z,20.30
2022-09-06T19:59:18.536Z,20.20
2022-09-06T20:01:47.704Z,20.20
2022-09-06T20:04:16.983Z,20.20
2022-09-06T20:06:45.256Z,20.20
2022-09-06T20:09:15.871Z,20.20
2022-09-06T20:11:44.791Z,20.10
2022-09-06T20:14:14.428Z,20.10
2022-09-06T20:16:43.304Z,20.10
2022-09-06T20:19:14.843Z,20.10
2022-09-06T20:21:43.236Z,20.10
2022-09-06T20:24:11.511Z,20.00
2022-09-06T20:26:40.324Z,20.00
2022-09-06T20:29:09.043Z,20.00
2022-09-06T20:31:39.021Z,20.00
2022-09-06T20:34:08.157Z,20.00
2022-09-06T20:36:36.752Z,20.00
2022-09-06T20:39:05.333Z,20.00
2022-09-06T20:41:34.476Z,19.90
2022-09-06T20:44:02.890Z,19.90
2022-09-06T20:46:33.798Z,19.90
2022-09-06T20:49:05.362Z,19.90
2022-09-06T20:51:36.019Z,19.90
2022-09-06T20:54:06.475Z,19.80
2022-09-06T20:56:38.318Z,19.80
2022-09-06T20:59:09.506Z,19.80
